Terminal Aerodrome Forecast
Issued by NWS Wilmington, OH

Current Version | Previous Version | Text Only | Print | Product List | Glossary Off
Versions: 1 2 3 4 5 6 7 8 9 10 11 12 13 14 15 16 17 18

587
FTUS41 KILN 211459 AAA
TAFILN
TAF AMD
KILN 211459Z 2115/2212 20014G24KT P6SM SCT080 BKN150 OVC250
     FM212300 24012KT P6SM VCSH BKN060
     FM220300 29012G18KT P6SM BKN035
      TEMPO 2203/2206 BKN025
     FM220600 30012KT P6SM SCT035=

USA.gov is the U.S. government's official web portal to all federal, state and local government web resources and services.